createdAt,value
2023-02-24T00:02:05.319Z,372.45
2023-02-24T00:04:39.508Z,377.52
2023-02-24T00:07:12.786Z,381.13
2023-02-24T00:09:40.264Z,350.20
2023-02-24T00:12:12.751Z,370.75
2023-02-24T00:14:43.629Z,388.20
2023-02-24T00:17:15.666Z,389.85
2023-02-24T00:19:43.136Z,375.00
2023-02-24T00:22:10.409Z,399.05
2023-02-24T00:24:37.523Z,372.80
2023-02-24T00:27:07.909Z,372.88
2023-02-24T00:29:37.690Z,394.88
2023-02-24T00:32:07.270Z,385.80
2023-02-24T00:34:37.572Z,375.23
2023-02-24T00:37:07.067Z,380.58
2023-02-24T00:39:35.799Z,396.55
2023-02-24T00:42:06.012Z,362.17
2023-02-24T00:44:37.819Z,377.13
2023-02-24T00:47:08.683Z,398.48
2023-02-24T00:49:42.148Z,358.00
2023-02-24T00:52:15.572Z,359.55
2023-02-24T00:54:44.120Z,412.58
2023-02-24T00:57:11.684Z,351.50
2023-02-24T00:59:39.266Z,361.08
2023-02-24T01:02:11.523Z,379.05
2023-02-24T01:04:38.750Z,369.70
2023-02-24T01:07:11.174Z,354.02
2023-02-24T01:09:41.444Z,370.33
2023-02-24T01:12:31.971Z,407.17
2023-02-24T01:14:58.930Z,396.27
2023-02-24T01:17:25.900Z,417.75
2023-02-24T01:19:53.333Z,384.38
2023-02-24T01:22:21.321Z,390.80
2023-02-24T01:24:48.809Z,389.85
2023-02-24T01:27:20.749Z,414.77
2023-02-24T01:29:48.365Z,366.10
2023-02-24T01:32:20.847Z,369.50
2023-02-24T01:34:52.070Z,404.52
2023-02-24T01:37:20.516Z,373.30
2023-02-24T01:39:48.370Z,366.50
2023-02-24T01:42:19.971Z,370.23
2023-02-24T01:44:47.535Z,377.38
2023-02-24T01:47:18.193Z,368.25
2023-02-24T01:49:48.343Z,359.13
2023-02-24T01:52:30.632Z,371.35
2023-02-24T01:55:07.169Z,361.77
2023-02-24T01:57:38.771Z,403.75
2023-02-24T02:00:12.251Z,364.45
2023-02-24T02:02:42.735Z,367.52
2023-02-24T02:05:11.594Z,404.70
2023-02-24T02:07:40.454Z,369.50
2023-02-24T02:10:10.071Z,383.80
2023-02-24T02:12:44.628Z,371.10
2023-02-24T02:15:20.248Z,369.13
2023-02-24T02:18:08.105Z,381.02
2023-02-24T02:21:32.668Z,377.35
2023-02-24T02:24:20.467Z,369.48
2023-02-24T02:27:21.165Z,387.38
2023-02-24T02:30:34.734Z,363.48
2023-02-24T02:33:39.967Z,347.48
2023-02-24T02:36:24.618Z,337.35
2023-02-24T02:39:08.715Z,387.52
2023-02-24T02:41:56.317Z,368.67
2023-02-24T02:44:41.672Z,385.02
2023-02-24T02:47:26.993Z,365.33
2023-02-24T02:50:36.004Z,349.30
2023-02-24T02:53:12.528Z,393.38
2023-02-24T02:55:53.547Z,347.75
2023-02-24T02:58:26.397Z,380.63
2023-02-24T03:01:04.587Z,362.17
2023-02-24T03:03:47.004Z,362.30
2023-02-24T03:06:28.272Z,372.50
2023-02-24T03:09:12.530Z,341.33
2023-02-24T03:11:40.285Z,350.38
2023-02-24T03:14:12.164Z,364.70
2023-02-24T03:16:46.229Z,376.95
2023-02-24T03:19:17.809Z,362.33
2023-02-24T03:21:48.540Z,357.35
2023-02-24T03:24:15.787Z,411.08
2023-02-24T03:27:06.372Z,386.63
2023-02-24T03:29:48.562Z,357.48
2023-02-24T03:32:51.312Z,363.75
2023-02-24T03:35:24.412Z,390.40
2023-02-24T03:37:53.370Z,355.27
2023-02-24T03:40:21.168Z,354.83
2023-02-24T03:42:52.531Z,395.50
2023-02-24T03:45:22.907Z,359.13
2023-02-24T03:47:54.144Z,358.90
2023-02-24T03:50:22.227Z,384.70
2023-02-24T03:53:35.709Z,351.58
2023-02-24T03:56:45.917Z,384.13
2023-02-24T03:59:49.359Z,389.20
2023-02-24T04:02:26.771Z,415.33
2023-02-24T04:05:13.808Z,351.45
2023-02-24T04:07:53.178Z,395.20
2023-02-24T04:10:31.595Z,349.92
2023-02-24T04:13:19.646Z,356.30
2023-02-24T04:15:59.077Z,350.75
2023-02-24T04:18:31.118Z,365.85
2023-02-24T04:21:01.108Z,386.17
2023-02-24T04:23:38.720Z,354.75
2023-02-24T04:26:07.101Z,390.25
2023-02-24T04:28:35.702Z,365.50
2023-02-24T04:31:10.179Z,357.30
2023-02-24T04:33:41.042Z,383.52
2023-02-24T04:36:09.206Z,381.63
2023-02-24T04:38:36.609Z,364.17
2023-02-24T04:41:03.821Z,359.83
2023-02-24T04:43:30.873Z,389.95
2023-02-24T04:45:57.933Z,372.33
2023-02-24T04:48:25.146Z,369.38
2023-02-24T04:50:55.224Z,355.42
2023-02-24T04:53:27.383Z,402.55
2023-02-24T04:55:56.253Z,358.77
2023-02-24T04:58:29.667Z,359.63
2023-02-24T05:00:57.365Z,408.10
2023-02-24T05:03:28.382Z,353.95
2023-02-24T05:06:00.361Z,367.52
2023-02-24T05:08:29.727Z,374.05
2023-02-24T05:10:58.896Z,358.05
2023-02-24T05:13:29.147Z,355.48
2023-02-24T05:16:08.073Z,365.52
2023-02-24T05:18:38.679Z,357.83
2023-02-24T05:21:29.484Z,353.83
2023-02-24T05:24:06.551Z,359.17
2023-02-24T05:26:37.039Z,351.30
2023-02-24T05:29:06.937Z,365.15
2023-02-24T05:31:34.858Z,339.05
2023-02-24T05:34:05.933Z,351.52
2023-02-24T05:36:45.948Z,368.58
2023-02-24T05:39:19.269Z,362.30
2023-02-24T05:41:49.381Z,349.27
2023-02-24T05:44:23.634Z,363.83
2023-02-24T05:46:58.416Z,358.83
2023-02-24T05:49:35.749Z,351.60
2023-02-24T05:52:09.057Z,372.40
2023-02-24T05:54:42.744Z,349.80
2023-02-24T05:57:13.782Z,354.73
2023-02-24T05:59:42.137Z,353.23
2023-02-24T06:02:13.265Z,348.03
2023-02-24T06:04:54.218Z,373.50
2023-02-24T06:07:25.793Z,358.13
2023-02-24T06:09:57.162Z,374.95
2023-02-24T06:12:36.210Z,347.92
2023-02-24T06:15:07.770Z,347.80
2023-02-24T06:17:35.208Z,345.30
2023-02-24T06:20:04.818Z,358.57
2023-02-24T06:22:33.843Z,362.67
2023-02-24T06:25:01.072Z,345.25
2023-02-24T06:27:28.067Z,353.07
2023-02-24T06:29:56.966Z,352.83
2023-02-24T06:32:26.550Z,348.92
2023-02-24T06:34:54.753Z,351.33
2023-02-24T06:37:23.419Z,351.90
2023-02-24T06:39:50.591Z,350.25
2023-02-24T06:42:17.733Z,352.60
2023-02-24T06:44:45.380Z,348.10
2023-02-24T06:47:14.771Z,367.43
2023-02-24T06:49:45.044Z,351.93
2023-02-24T06:52:18.756Z,354.10
2023-02-24T06:54:49.529Z,359.92
2023-02-24T06:57:16.925Z,349.13
2023-02-24T06:59:44.039Z,346.67
2023-02-24T07:02:11.708Z,370.30
2023-02-24T07:04:44.158Z,356.25
2023-02-24T07:07:14.561Z,352.47
2023-02-24T07:09:42.858Z,350.80
2023-02-24T07:12:12.754Z,344.07
2023-02-24T07:14:40.699Z,344.45
2023-02-24T07:17:08.963Z,355.90
2023-02-24T07:19:36.941Z,343.60
2023-02-24T07:22:04.257Z,350.03
2023-02-24T07:24:39.469Z,341.42
2023-02-24T07:27:22.402Z,344.13
2023-02-24T07:29:53.368Z,350.58
2023-02-24T07:32:22.664Z,354.13
2023-02-24T07:34:49.894Z,359.23
2023-02-24T07:37:17.089Z,423.10
2023-02-24T07:39:44.401Z,351.13
2023-02-24T07:42:13.931Z,371.13
2023-02-24T07:44:42.771Z,364.70
2023-02-24T07:47:10.181Z,351.83
2023-02-24T07:49:39.652Z,357.27
2023-02-24T07:52:08.330Z,362.30
2023-02-24T07:54:35.821Z,362.70
2023-02-24T07:57:03.297Z,362.38
2023-02-24T07:59:37.752Z,354.67
2023-02-24T08:02:07.823Z,360.03
2023-02-24T08:04:36.528Z,350.58
2023-02-24T08:07:04.731Z,354.20
2023-02-24T08:09:46.741Z,355.13
2023-02-24T08:12:22.002Z,357.60
2023-02-24T08:14:52.430Z,356.10
2023-02-24T08:17:21.482Z,360.70
2023-02-24T08:19:50.977Z,354.50
2023-02-24T08:22:21.006Z,356.88
2023-02-24T08:24:53.487Z,349.92
2023-02-24T08:27:25.666Z,352.08
2023-02-24T08:29:58.385Z,349.90
2023-02-24T08:32:27.539Z,348.85
2023-02-24T08:35:03.032Z,352.02
2023-02-24T08:37:39.876Z,356.13
2023-02-24T08:40:31.139Z,357.52
2023-02-24T08:43:17.597Z,378.48
2023-02-24T08:45:50.976Z,353.90
2023-02-24T08:48:26.484Z,360.83
2023-02-24T08:50:57.932Z,358.30
2023-02-24T08:53:31.539Z,350.40
2023-02-24T08:56:09.754Z,355.48
2023-02-24T08:58:49.129Z,362.02
2023-02-24T09:01:19.869Z,355.67
2023-02-24T09:03:55.259Z,353.50
2023-02-24T09:06:38.865Z,356.60
2023-02-24T09:09:18.816Z,355.08
2023-02-24T09:11:47.763Z,360.02
2023-02-24T09:14:28.233Z,362.25
2023-02-24T09:17:02.484Z,359.33
2023-02-24T09:19:48.345Z,356.02
2023-02-24T09:22:57.464Z,363.08
2023-02-24T09:25:40.954Z,365.05
2023-02-24T09:28:09.525Z,369.98
2023-02-24T09:30:53.460Z,362.90
2023-02-24T09:33:23.651Z,371.33
2023-02-24T09:36:09.989Z,383.63
2023-02-24T09:38:57.877Z,377.05
2023-02-24T09:42:08.227Z,380.55
2023-02-24T09:44:45.499Z,365.40
2023-02-24T09:47:37.164Z,367.75
2023-02-24T09:50:46.913Z,377.23
2023-02-24T09:53:17.654Z,362.17
2023-02-24T09:56:25.315Z,369.92
2023-02-24T09:59:10.425Z,374.80
2023-02-24T10:01:46.732Z,367.65
2023-02-24T10:04:49.422Z,392.15
2023-02-24T10:07:38.659Z,373.27
2023-02-24T10:10:19.900Z,374.15
2023-02-24T10:13:18.685Z,386.38
2023-02-24T10:15:58.699Z,387.92
2023-02-24T10:18:48.752Z,387.67
2023-02-24T10:21:48.472Z,382.55
2023-02-24T10:24:41.387Z,397.17
2023-02-24T10:27:33.404Z,387.90
2023-02-24T10:30:41.065Z,386.98
2023-02-24T10:33:37.871Z,392.70
2023-02-24T10:36:13.539Z,391.95
2023-02-24T10:38:45.478Z,392.70
2023-02-24T10:41:17.227Z,389.15
2023-02-24T10:43:56.391Z,391.58
2023-02-24T10:46:42.893Z,397.65
2023-02-24T10:49:16.944Z,411.52
2023-02-24T10:51:53.284Z,387.15
2023-02-24T10:57:19.389Z,398.42
2023-02-24T11:00:20.952Z,394.02
2023-02-24T11:03:11.369Z,393.42
2023-02-24T11:06:08.478Z,402.77
2023-02-24T11:08:44.338Z,398.52
2023-02-24T11:11:52.500Z,411.63
2023-02-24T11:14:38.849Z,424.42
2023-02-24T11:17:30.003Z,392.65
2023-02-24T11:20:19.584Z,405.35
2023-02-24T11:22:52.140Z,391.83
2023-02-24T11:25:39.674Z,408.25
2023-02-24T11:28:26.942Z,393.30
2023-02-24T11:31:25.198Z,399.20
2023-02-24T11:34:07.670Z,400.00
2023-02-24T11:36:54.580Z,403.75
2023-02-24T11:39:56.268Z,396.70
2023-02-24T11:42:36.784Z,392.55
2023-02-24T11:45:55.263Z,400.20
2023-02-24T11:48:39.976Z,404.40
2023-02-24T11:51:17.024Z,400.77
2023-02-24T11:53:55.831Z,412.05
2023-02-24T11:56:44.558Z,403.45
2023-02-24T11:59:42.699Z,408.15
2023-02-24T12:03:05.135Z,399.25
2023-02-24T12:05:40.642Z,396.85
2023-02-24T12:08:23.845Z,398.00
2023-02-24T12:11:01.961Z,413.08
2023-02-24T12:13:55.629Z,412.13
2023-02-24T12:16:45.942Z,406.52
2023-02-24T12:19:37.560Z,408.33
2023-02-24T12:22:16.717Z,407.50
2023-02-24T12:24:52.527Z,408.60
2023-02-24T12:27:54.928Z,407.98
2023-02-24T12:30:49.241Z,407.23
2023-02-24T12:33:44.969Z,411.73
2023-02-24T12:37:07.899Z,424.35
2023-02-24T12:39:48.141Z,421.05
2023-02-24T12:43:12.690Z,446.48
2023-02-24T12:45:54.216Z,447.13
2023-02-24T12:48:58.437Z,468.98
2023-02-24T12:51:49.291Z,479.70
2023-02-24T12:54:49.755Z,480.77
2023-02-24T12:57:42.480Z,489.67
2023-02-24T13:00:26.223Z,494.10
2023-02-24T13:03:13.969Z,504.88
2023-02-24T13:06:03.240Z,499.85
2023-02-24T13:09:14.932Z,512.67
2023-02-24T13:12:27.378Z,499.33
2023-02-24T13:14:54.820Z,482.38
2023-02-24T13:17:27.111Z,515.15
2023-02-24T13:19:55.855Z,482.92
2023-02-24T13:22:32.768Z,480.75
2023-02-24T13:25:08.616Z,493.48
2023-02-24T13:27:38.975Z,470.98
2023-02-24T13:30:11.271Z,477.55
2023-02-24T13:32:45.747Z,471.63
2023-02-24T13:35:15.581Z,454.50
2023-02-24T13:37:46.511Z,449.55
2023-02-24T13:40:18.942Z,458.20
2023-02-24T13:42:59.499Z,447.98
2023-02-24T13:45:39.824Z,487.70
2023-02-24T13:48:42.559Z,432.65
2023-02-24T13:51:46.521Z,445.25
2023-02-24T13:55:00.489Z,459.45
2023-02-24T13:57:49.018Z,455.40
2023-02-24T14:00:40.925Z,472.27
2023-02-24T14:03:21.144Z,453.40
2023-02-24T14:05:49.790Z,459.27
2023-02-24T14:08:25.763Z,473.42
2023-02-24T14:10:57.044Z,457.95
2023-02-24T14:13:34.108Z,458.05
2023-02-24T14:16:08.198Z,492.35
2023-02-24T14:18:36.709Z,486.05
2023-02-24T14:21:04.152Z,466.83
2023-02-24T14:23:35.464Z,474.77
2023-02-24T14:26:07.572Z,484.15
2023-02-24T14:28:40.052Z,483.02
2023-02-24T14:31:17.041Z,490.92
2023-02-24T14:33:46.216Z,485.52
2023-02-24T14:36:25.501Z,469.02
2023-02-24T14:39:16.348Z,463.75
2023-02-24T14:41:44.873Z,461.67
2023-02-24T14:44:30.504Z,449.83
2023-02-24T14:47:03.012Z,446.80
2023-02-24T14:49:36.407Z,459.13
2023-02-24T14:52:10.729Z,465.50
2023-02-24T14:55:17.716Z,445.83
2023-02-24T14:58:09.004Z,443.17
2023-02-24T15:00:43.754Z,425.38
2023-02-24T15:03:39.005Z,426.02
2023-02-24T15:06:20.066Z,427.63
2023-02-24T15:08:52.554Z,454.90
2023-02-24T15:11:23.513Z,446.88
2023-02-24T15:14:02.697Z,442.73
2023-02-24T15:16:40.033Z,432.40
2023-02-24T15:19:37.152Z,424.77
2023-02-24T15:22:41.547Z,426.77
2023-02-24T15:25:37.106Z,419.05
2023-02-24T15:28:31.388Z,427.95
2023-02-24T15:31:16.114Z,423.17
2023-02-24T15:33:53.818Z,410.75
2023-02-24T15:36:28.975Z,424.77
2023-02-24T15:39:05.046Z,408.48
2023-02-24T15:41:49.082Z,444.60
2023-02-24T15:44:32.258Z,416.05
2023-02-24T15:47:12.426Z,418.90
2023-02-24T15:49:42.156Z,407.40
2023-02-24T15:52:10.338Z,434.95
2023-02-24T15:54:42.722Z,425.42
2023-02-24T15:57:13.320Z,428.90
2023-02-24T15:59:41.347Z,403.60
2023-02-24T16:02:19.942Z,427.38
2023-02-24T16:04:48.511Z,411.45
2023-02-24T16:07:31.106Z,409.05
2023-02-24T16:09:59.942Z,419.02
2023-02-24T16:12:33.226Z,410.33
2023-02-24T16:15:04.336Z,405.50
2023-02-24T16:17:42.915Z,433.40
2023-02-24T16:20:18.572Z,418.85
2023-02-24T16:22:46.619Z,414.83
2023-02-24T16:27:50.422Z,483.02
2023-02-24T16:30:22.463Z,416.10
2023-02-24T16:32:51.230Z,404.50
2023-02-24T16:35:19.622Z,434.23
2023-02-24T16:37:48.965Z,392.30
2023-02-24T16:40:28.113Z,390.73
2023-02-24T16:42:55.255Z,383.25
2023-02-24T16:45:26.815Z,424.60
2023-02-24T16:47:57.679Z,380.48
2023-02-24T16:50:41.724Z,382.05
2023-02-24T16:53:13.344Z,395.45
2023-02-24T16:55:40.404Z,385.77
2023-02-24T16:58:07.384Z,391.80
2023-02-24T17:00:34.582Z,377.38
2023-02-24T17:03:17.250Z,376.08
2023-02-24T17:05:44.638Z,371.88
2023-02-24T17:08:12.459Z,379.40
2023-02-24T17:10:40.115Z,384.95
2023-02-24T17:13:07.686Z,388.73
2023-02-24T17:15:34.730Z,415.90
2023-02-24T17:18:02.250Z,393.77
2023-02-24T17:20:29.519Z,383.30
2023-02-24T17:22:56.554Z,369.90
2023-02-24T17:25:27.018Z,375.98
2023-02-24T17:27:55.720Z,393.20
2023-02-24T17:30:30.743Z,377.60
2023-02-24T17:32:58.284Z,361.63
2023-02-24T17:35:27.132Z,385.10
2023-02-24T17:37:54.568Z,363.17
2023-02-24T17:40:22.105Z,363.20
2023-02-24T17:42:49.229Z,381.98
2023-02-24T17:45:16.453Z,378.77
2023-02-24T17:47:49.481Z,384.17
2023-02-24T17:50:17.318Z,444.88
2023-02-24T17:52:44.864Z,401.33
2023-02-24T17:55:12.554Z,397.60
2023-02-24T17:57:40.016Z,371.25
2023-02-24T18:00:10.839Z,391.70
2023-02-24T18:02:38.677Z,401.65
2023-02-24T18:05:06.605Z,388.55
2023-02-24T18:07:34.072Z,385.70
2023-02-24T18:10:02.801Z,366.10
2023-02-24T18:12:32.752Z,377.13
2023-02-24T18:15:08.387Z,361.60
2023-02-24T18:17:38.830Z,386.50
2023-02-24T18:20:08.588Z,370.58
2023-02-24T18:22:36.316Z,370.60
2023-02-24T18:25:04.275Z,383.40
2023-02-24T18:27:31.376Z,360.15
2023-02-24T18:29:58.365Z,376.63
2023-02-24T18:32:25.604Z,352.30
2023-02-24T18:34:52.691Z,369.33
2023-02-24T18:37:20.166Z,377.92
2023-02-24T18:39:47.297Z,348.98
2023-02-24T18:42:14.285Z,362.55
2023-02-24T18:44:41.273Z,354.20
2023-02-24T18:47:09.850Z,357.00
2023-02-24T18:49:37.867Z,350.90
2023-02-24T18:52:07.472Z,347.35
2023-02-24T18:54:34.932Z,402.70
2023-02-24T18:57:02.226Z,358.05
2023-02-24T18:59:29.369Z,372.15
2023-02-24T19:01:57.089Z,367.73
2023-02-24T19:04:25.132Z,377.15
2023-02-24T19:06:52.223Z,362.08
2023-02-24T19:09:21.792Z,368.15
2023-02-24T19:11:50.218Z,390.52
2023-02-24T19:14:17.541Z,360.90
2023-02-24T19:16:45.410Z,373.73
2023-02-24T19:19:16.782Z,361.70
2023-02-24T19:21:48.442Z,360.05
2023-02-24T19:24:17.145Z,350.85
2023-02-24T19:26:45.910Z,362.15
2023-02-24T19:29:13.744Z,358.83
2023-02-24T19:31:41.016Z,391.30
2023-02-24T19:34:13.150Z,372.08
2023-02-24T19:36:41.378Z,399.40
2023-02-24T19:39:15.950Z,378.92
2023-02-24T19:41:43.211Z,375.00
2023-02-24T19:44:11.027Z,362.83
2023-02-24T19:46:39.088Z,396.40
2023-02-24T19:49:06.819Z,392.70
2023-02-24T19:51:35.417Z,389.90
2023-02-24T19:54:03.649Z,384.77
2023-02-24T19:56:35.698Z,383.02
2023-02-24T19:59:06.633Z,368.67
2023-02-24T20:01:34.117Z,407.67
2023-02-24T20:04:04.037Z,375.65
2023-02-24T20:06:37.642Z,391.15
2023-02-24T20:09:17.179Z,359.98
2023-02-24T20:11:45.946Z,358.42
2023-02-24T20:14:14.435Z,383.80
2023-02-24T20:16:43.003Z,355.88
2023-02-24T20:19:12.221Z,373.73
2023-02-24T20:21:40.375Z,365.27
2023-02-24T20:24:13.879Z,349.00
2023-02-24T20:26:46.366Z,355.42
2023-02-24T20:29:15.078Z,348.48
2023-02-24T20:31:42.537Z,358.90
2023-02-24T20:34:10.728Z,354.63
2023-02-24T20:36:38.261Z,382.23
2023-02-24T20:39:08.613Z,349.87
2023-02-24T20:41:35.657Z,354.23
2023-02-24T20:44:02.801Z,362.43
2023-02-24T20:46:32.370Z,381.17
2023-02-24T20:49:04.141Z,370.87
2023-02-24T20:51:32.805Z,353.23
2023-02-24T20:54:00.479Z,363.87
2023-02-24T20:56:33.195Z,361.40
2023-02-24T20:59:04.515Z,370.63
2023-02-24T21:01:33.043Z,367.17
2023-02-24T21:04:00.869Z,354.50
2023-02-24T21:06:29.067Z,359.40
2023-02-24T21:08:57.453Z,354.23
2023-02-24T21:11:24.896Z,361.63
2023-02-24T21:13:52.615Z,341.10
2023-02-24T21:16:21.236Z,337.93
2023-02-24T21:18:50.600Z,332.27
2023-02-24T21:21:19.541Z,343.43
2023-02-24T21:23:47.177Z,327.63
2023-02-24T21:26:14.898Z,325.20
2023-02-24T21:28:42.032Z,338.53
2023-02-24T21:31:16.056Z,323.67
2023-02-24T21:33:43.568Z,340.57
2023-02-24T21:36:15.853Z,329.53
2023-02-24T21:38:42.938Z,353.73
2023-02-24T21:41:14.974Z,334.77
2023-02-24T21:43:44.241Z,368.73
2023-02-24T21:46:14.395Z,373.27
2023-02-24T21:48:42.019Z,344.17
2023-02-24T21:51:11.967Z,343.43
2023-02-24T21:53:41.941Z,359.57
2023-02-24T21:56:17.461Z,329.57
2023-02-24T21:58:54.127Z,342.73
2023-02-24T22:01:32.838Z,346.97
2023-02-24T22:04:03.244Z,335.67
2023-02-24T22:06:32.124Z,344.70
2023-02-24T22:09:00.385Z,337.47
2023-02-24T22:11:27.681Z,342.17
2023-02-24T22:13:54.658Z,333.37
2023-02-24T22:16:25.344Z,329.17
2023-02-24T22:18:54.656Z,320.53
2023-02-24T22:21:28.109Z,328.07
2023-02-24T22:23:59.904Z,337.03
2023-02-24T22:26:29.141Z,339.50
2023-02-24T22:28:56.779Z,335.30
2023-02-24T22:31:29.087Z,328.57
2023-02-24T22:33:56.805Z,333.90
2023-02-24T22:36:27.507Z,329.27
2023-02-24T22:38:59.603Z,331.20
2023-02-24T22:41:33.110Z,341.93
2023-02-24T22:44:02.198Z,325.73
2023-02-24T22:46:33.435Z,339.43
2023-02-24T22:49:00.883Z,331.67
2023-02-24T22:51:28.520Z,332.37
2023-02-24T22:53:56.444Z,333.20
2023-02-24T22:56:27.201Z,322.97
2023-02-24T22:58:55.100Z,329.60
2023-02-24T23:01:32.176Z,321.87
2023-02-24T23:04:01.489Z,320.03
2023-02-24T23:06:29.275Z,336.03
2023-02-24T23:08:58.423Z,320.00
2023-02-24T23:11:31.787Z,328.30
2023-02-24T23:14:04.011Z,332.70
2023-02-24T23:16:34.289Z,330.77
2023-02-24T23:19:06.684Z,336.43
2023-02-24T23:21:38.444Z,331.40
2023-02-24T23:24:08.113Z,332.33
2023-02-24T23:26:43.701Z,330.27
2023-02-24T23:29:14.445Z,331.70
2023-02-24T23:31:42.426Z,320.03
2023-02-24T23:34:10.272Z,330.20
2023-02-24T23:36:40.891Z,342.83
2023-02-24T23:39:09.182Z,329.37
2023-02-24T23:41:38.073Z,338.13
2023-02-24T23:44:06.185Z,329.07
2023-02-24T23:46:35.200Z,346.00
2023-02-24T23:49:02.340Z,326.27
2023-02-24T23:51:45.713Z,330.53
2023-02-24T23:54:14.497Z,331.37
2023-02-24T23:56:41.569Z,351.30
2023-02-24T23:59:08.759Z,333.93
